Waynesville, NC

3:25 AM EDT on August 01, 2015 (GMT -0400)
The Estates at Boulder Creek | | Change Station
CLOSE
Current Station
Personal Weather Station
Location: Waynesville, NC
Elevation: 3159 ft
Nearby Weather Stations

Elev 3159 ft 35.47 °N, 82.94 °W | Updated 1 second ago

Partly Cloudy
Partly Cloudy
60.8 °F
Feels Like 60.8 °F
N
0.0
Wind Variable Wind from WNW
Gusts 0.0 mph

Today
High -- | Low -- °F
--% Chance of Precip.
Yesterday
High -- | Low -- °F
Precip. -- in
6:39 AM 8:35 PM
Full, 99% visible
Pressure 29.99 in
Visibility 10.0 miles
Clouds Mostly Cloudy 6500 ft
Dew Point Not available.
Humidity Not available.
Rainfall 0.00 in
Snow Depth Not available.
UV 0.0 out of 12
Pollen 4.80 out of 12
Air Quality Not available.
Flu Activity Not available.
METAR KAVL 010654Z AUTO 34006KT 10SM BKN065 20/14 A3007 RMK AO2 SLP154 T02000139

More Conditions Fewer Conditions

Pressure 29.99 in
Visibility 10.0 miles
Clouds Mostly Cloudy 6500 ft
Dew Point Not available.
Humidity Not available.
Rainfall 0.00 in
Snow Depth Not available.
UV 0.0 out of 12
Pollen 4.80 out of 12
Air Quality Not available.
Flu Activity Not available.
METAR KAVL 010654Z AUTO 34006KT 10SM BKN065 20/14 A3007 RMK AO2 SLP154 T02000139

More Conditions Fewer Conditions

10-Day Weather Forecast

×

Almanac

Astronomy

Aug. 01, 2015 Rise Set
Actual Time
Civil Twilight
Nautical Twilight
Astronomical Twilight
Moon
Length of Visible Light
Length of Day
Tomorrow will be .
, % of the Moon is Illuminated

Today's Extremes

State Highs State Lows

Community

WunderPhotos

Upload Photos

1,842,899 photos uploaded!

WunderBlogs® & News

Nearby

Air Quality

  Air Quality AQ Index Pollutant
Not available.

Snow Depth

Station Depth Elevation

Earthquake Activity

City Distance Mag. Time & Date
Minimum magnitude displayed is 2.5.

Coastal Water Temperatures

Place Temperature

Stations

Nearby Weather Stations

Station Location Temp. Windchill Dew Point Humidity Wind Precip. Elev Updated Type